sensor_id;sensor_type;location;lat;lon;timestamp;P1;durP1;ratioP1;P2;durP2;ratioP2
11121;SDS011;5615;49.304;10.576;2023-06-22T00:01:12;19.95;;;14.05;;
11121;SDS011;5615;49.304;10.576;2023-06-22T00:03:39;14.93;;;12.40;;
11121;SDS011;5615;49.304;10.576;2023-06-22T00:06:05;16.75;;;12.60;;
11121;SDS011;5615;49.304;10.576;2023-06-22T00:08:32;14.38;;;12.75;;
11121;SDS011;5615;49.304;10.576;2023-06-22T00:10:59;14.65;;;13.10;;
11121;SDS011;5615;49.304;10.576;2023-06-22T00:13:25;14.98;;;13.52;;
11121;SDS011;5615;49.304;10.576;2023-06-22T00:15:53;13.50;;;12.20;;
11121;SDS011;5615;49.304;10.576;2023-06-22T00:18:20;14.48;;;13.07;;
11121;SDS011;5615;49.304;10.576;2023-06-22T00:20:46;13.32;;;11.77;;
11121;SDS011;5615;49.304;10.576;2023-06-22T00:23:13;15.30;;;12.05;;
11121;SDS011;5615;49.304;10.576;2023-06-22T00:25:40;12.75;;;11.48;;
11121;SDS011;5615;49.304;10.576;2023-06-22T00:28:07;13.70;;;12.38;;
11121;SDS011;5615;49.304;10.576;2023-06-22T00:30:34;15.32;;;11.82;;
11121;SDS011;5615;49.304;10.576;2023-06-22T00:33:03;16.08;;;13.95;;
11121;SDS011;5615;49.304;10.576;2023-06-22T00:35:32;14.27;;;12.70;;
11121;SDS011;5615;49.304;10.576;2023-06-22T00:37:59;17.65;;;15.80;;
11121;SDS011;5615;49.304;10.576;2023-06-22T00:40:27;16.27;;;14.65;;
11121;SDS011;5615;49.304;10.576;2023-06-22T00:42:54;17.40;;;14.38;;
11121;SDS011;5615;49.304;10.576;2023-06-22T00:45:21;16.25;;;14.60;;
11121;SDS011;5615;49.304;10.576;2023-06-22T00:47:48;17.60;;;15.82;;
11121;SDS011;5615;49.304;10.576;2023-06-22T00:50:18;17.40;;;15.63;;
11121;SDS011;5615;49.304;10.576;2023-06-22T00:52:47;18.90;;;15.82;;
11121;SDS011;5615;49.304;10.576;2023-06-22T00:55:17;17.23;;;15.32;;
11121;SDS011;5615;49.304;10.576;2023-06-22T00:57:45;17.63;;;14.70;;
11121;SDS011;5615;49.304;10.576;2023-06-22T01:00:12;16.08;;;14.43;;
11121;SDS011;5615;49.304;10.576;2023-06-22T01:02:41;18.10;;;15.00;;
11121;SDS011;5615;49.304;10.576;2023-06-22T01:05:10;16.35;;;14.68;;
11121;SDS011;5615;49.304;10.576;2023-06-22T01:07:41;17.55;;;14.23;;
11121;SDS011;5615;49.304;10.576;2023-06-22T01:10:14;15.75;;;13.70;;
11121;SDS011;5615;49.304;10.576;2023-06-22T01:12:48;18.92;;;14.68;;
11121;SDS011;5615;49.304;10.576;2023-06-22T01:15:20;14.85;;;13.32;;
11121;SDS011;5615;49.304;10.576;2023-06-22T01:17:51;18.13;;;14.77;;
11121;SDS011;5615;49.304;10.576;2023-06-22T01:20:19;15.88;;;14.10;;
11121;SDS011;5615;49.304;10.576;2023-06-22T01:22:53;17.75;;;13.23;;
11121;SDS011;5615;49.304;10.576;2023-06-22T01:25:33;13.95;;;12.45;;
11121;SDS011;5615;49.304;10.576;2023-06-22T01:28:23;15.80;;;14.05;;
11121;SDS011;5615;49.304;10.576;2023-06-22T01:31:01;18.42;;;13.75;;
11121;SDS011;5615;49.304;10.576;2023-06-22T01:33:31;14.65;;;13.15;;
11121;SDS011;5615;49.304;10.576;2023-06-22T01:36:00;14.57;;;13.13;;
11121;SDS011;5615;49.304;10.576;2023-06-22T01:38:28;16.17;;;13.57;;
11121;SDS011;5615;49.304;10.576;2023-06-22T01:40:56;20.15;;;14.60;;
11121;SDS011;5615;49.304;10.576;2023-06-22T01:43:23;16.35;;;14.50;;
11121;SDS011;5615;49.304;10.576;2023-06-22T01:45:52;15.98;;;14.30;;
11121;SDS011;5615;49.304;10.576;2023-06-22T01:48:19;15.77;;;13.60;;
11121;SDS011;5615;49.304;10.576;2023-06-22T01:50:47;14.70;;;13.05;;
11121;SDS011;5615;49.304;10.576;2023-06-22T01:53:14;16.42;;;14.82;;
11121;SDS011;5615;49.304;10.576;2023-06-22T01:55:41;15.90;;;14.32;;
11121;SDS011;5615;49.304;10.576;2023-06-22T01:58:08;16.33;;;14.75;;
11121;SDS011;5615;49.304;10.576;2023-06-22T02:00:37;15.27;;;13.65;;
11121;SDS011;5615;49.304;10.576;2023-06-22T02:03:08;16.05;;;14.43;;
11121;SDS011;5615;49.304;10.576;2023-06-22T02:05:43;16.15;;;14.52;;
11121;SDS011;5615;49.304;10.576;2023-06-22T02:08:16;17.83;;;14.88;;
11121;SDS011;5615;49.304;10.576;2023-06-22T02:10:46;16.55;;;13.57;;
11121;SDS011;5615;49.304;10.576;2023-06-22T02:13:14;15.55;;;14.13;;
11121;SDS011;5615;49.304;10.576;2023-06-22T02:15:42;15.60;;;14.05;;
11121;SDS011;5615;49.304;10.576;2023-06-22T02:18:11;15.00;;;13.57;;
11121;SDS011;5615;49.304;10.576;2023-06-22T02:20:38;18.02;;;14.15;;
11121;SDS011;5615;49.304;10.576;2023-06-22T02:23:05;17.35;;;15.05;;
11121;SDS011;5615;49.304;10.576;2023-06-22T02:25:32;17.60;;;15.57;;
11121;SDS011;5615;49.304;10.576;2023-06-22T02:27:59;16.92;;;15.13;;
11121;SDS011;5615;49.304;10.576;2023-06-22T02:30:26;17.17;;;15.15;;
11121;SDS011;5615;49.304;10.576;2023-06-22T02:32:53;17.92;;;14.45;;
11121;SDS011;5615;49.304;10.576;2023-06-22T02:35:25;20.65;;;15.77;;
11121;SDS011;5615;49.304;10.576;2023-06-22T02:37:51;22.30;;;15.75;;
11121;SDS011;5615;49.304;10.576;2023-06-22T02:40:19;19.08;;;16.13;;
11121;SDS011;5615;49.304;10.576;2023-06-22T02:42:45;19.77;;;15.83;;
11121;SDS011;5615;49.304;10.576;2023-06-22T02:45:12;18.35;;;16.25;;
11121;SDS011;5615;49.304;10.576;2023-06-22T02:47:39;20.20;;;15.18;;
11121;SDS011;5615;49.304;10.576;2023-06-22T02:50:06;18.83;;;16.90;;
11121;SDS011;5615;49.304;10.576;2023-06-22T02:52:34;19.33;;;16.10;;
11121;SDS011;5615;49.304;10.576;2023-06-22T02:55:01;22.15;;;16.20;;
11121;SDS011;5615;49.304;10.576;2023-06-22T02:57:27;20.02;;;17.92;;
11121;SDS011;5615;49.304;10.576;2023-06-22T02:59:55;23.67;;;16.80;;
11121;SDS011;5615;49.304;10.576;2023-06-22T03:02:22;19.15;;;17.10;;
11121;SDS011;5615;49.304;10.576;2023-06-22T03:04:49;21.37;;;17.53;;
11121;SDS011;5615;49.304;10.576;2023-06-22T03:07:18;20.05;;;17.90;;
11121;SDS011;5615;49.304;10.576;2023-06-22T03:09:46;19.15;;;16.55;;
11121;SDS011;5615;49.304;10.576;2023-06-22T03:12:13;21.58;;;17.25;;
11121;SDS011;5615;49.304;10.576;2023-06-22T03:14:39;21.77;;;16.88;;
11121;SDS011;5615;49.304;10.576;2023-06-22T03:17:06;20.80;;;17.65;;
11121;SDS011;5615;49.304;10.576;2023-06-22T03:19:33;18.95;;;16.77;;
11121;SDS011;5615;49.304;10.576;2023-06-22T03:22:00;19.30;;;17.02;;
11121;SDS011;5615;49.304;10.576;2023-06-22T03:24:26;18.70;;;16.75;;
11121;SDS011;5615;49.304;10.576;2023-06-22T03:26:56;19.50;;;17.38;;
11121;SDS011;5615;49.304;10.576;2023-06-22T03:29:22;20.27;;;18.13;;
11121;SDS011;5615;49.304;10.576;2023-06-22T03:31:50;19.67;;;17.50;;
11121;SDS011;5615;49.304;10.576;2023-06-22T03:34:16;21.98;;;17.23;;
11121;SDS011;5615;49.304;10.576;2023-06-22T03:36:44;20.67;;;17.95;;
11121;SDS011;5615;49.304;10.576;2023-06-22T03:39:11;20.05;;;17.98;;
11121;SDS011;5615;49.304;10.576;2023-06-22T03:41:37;21.25;;;19.08;;
11121;SDS011;5615;49.304;10.576;2023-06-22T03:44:05;20.27;;;17.52;;
11121;SDS011;5615;49.304;10.576;2023-06-22T03:46:35;22.55;;;19.65;;
11121;SDS011;5615;49.304;10.576;2023-06-22T03:49:02;20.95;;;18.75;;
11121;SDS011;5615;49.304;10.576;2023-06-22T03:51:28;21.83;;;19.50;;
11121;SDS011;5615;49.304;10.576;2023-06-22T03:53:55;23.00;;;20.70;;
11121;SDS011;5615;49.304;10.576;2023-06-22T03:56:22;22.83;;;20.48;;
11121;SDS011;5615;49.304;10.576;2023-06-22T03:58:48;21.70;;;19.40;;
11121;SDS011;5615;49.304;10.576;2023-06-22T04:01:17;22.38;;;19.38;;
11121;SDS011;5615;49.304;10.576;2023-06-22T04:03:44;22.33;;;20.10;;
11121;SDS011;5615;49.304;10.576;2023-06-22T04:06:13;22.55;;;20.17;;
11121;SDS011;5615;49.304;10.576;2023-06-22T04:08:39;21.17;;;18.80;;
11121;SDS011;5615;49.304;10.576;2023-06-22T04:11:07;23.38;;;18.95;;
11121;SDS011;5615;49.304;10.576;2023-06-22T04:13:33;22.90;;;19.52;;
11121;SDS011;5615;49.304;10.576;2023-06-22T04:16:00;21.80;;;19.17;;
11121;SDS011;5615;49.304;10.576;2023-06-22T04:18:28;21.58;;;18.42;;
11121;SDS011;5615;49.304;10.576;2023-06-22T04:20:55;20.67;;;18.33;;
11121;SDS011;5615;49.304;10.576;2023-06-22T04:23:21;20.38;;;17.98;;
11121;SDS011;5615;49.304;10.576;2023-06-22T04:25:48;19.35;;;17.35;;
11121;SDS011;5615;49.304;10.576;2023-06-22T04:28:15;20.50;;;18.17;;
11121;SDS011;5615;49.304;10.576;2023-06-22T04:30:42;20.02;;;17.98;;
11121;SDS011;5615;49.304;10.576;2023-06-22T04:33:12;20.38;;;18.17;;
11121;SDS011;5615;49.304;10.576;2023-06-22T04:35:40;21.02;;;18.77;;
11121;SDS011;5615;49.304;10.576;2023-06-22T04:38:08;18.98;;;17.13;;
11121;SDS011;5615;49.304;10.576;2023-06-22T04:40:35;17.80;;;15.98;;
11121;SDS011;5615;49.304;10.576;2023-06-22T04:43:02;18.65;;;16.50;;
11121;SDS011;5615;49.304;10.576;2023-06-22T04:45:28;19.70;;;17.80;;
11121;SDS011;5615;49.304;10.576;2023-06-22T04:47:55;17.80;;;16.00;;
11121;SDS011;5615;49.304;10.576;2023-06-22T04:50:22;16.95;;;15.20;;
11121;SDS011;5615;49.304;10.576;2023-06-22T04:52:50;16.30;;;14.68;;
11121;SDS011;5615;49.304;10.576;2023-06-22T04:55:17;14.63;;;13.13;;
11121;SDS011;5615;49.304;10.576;2023-06-22T04:57:44;15.18;;;13.70;;
11121;SDS011;5615;49.304;10.576;2023-06-22T05:00:14;16.38;;;14.77;;
11121;SDS011;5615;49.304;10.576;2023-06-22T05:02:42;15.45;;;13.85;;
11121;SDS011;5615;49.304;10.576;2023-06-22T05:05:09;15.50;;;14.02;;
11121;SDS011;5615;49.304;10.576;2023-06-22T05:07:38;15.40;;;12.93;;
11121;SDS011;5615;49.304;10.576;2023-06-22T05:10:09;13.38;;;11.98;;
11121;SDS011;5615;49.304;10.576;2023-06-22T05:12:37;12.70;;;11.43;;
11121;SDS011;5615;49.304;10.576;2023-06-22T05:15:05;16.80;;;12.40;;
11121;SDS011;5615;49.304;10.576;2023-06-22T05:17:32;13.57;;;12.15;;
11121;SDS011;5615;49.304;10.576;2023-06-22T05:19:59;12.13;;;11.07;;
11121;SDS011;5615;49.304;10.576;2023-06-22T05:22:25;12.57;;;11.30;;
11121;SDS011;5615;49.304;10.576;2023-06-22T05:24:52;13.43;;;12.00;;
11121;SDS011;5615;49.304;10.576;2023-06-22T05:27:20;13.48;;;12.23;;
11121;SDS011;5615;49.304;10.576;2023-06-22T05:29:46;11.68;;;10.68;;
11121;SDS011;5615;49.304;10.576;2023-06-22T05:32:13;13.80;;;12.25;;
11121;SDS011;5615;49.304;10.576;2023-06-22T05:34:40;13.02;;;11.70;;
11121;SDS011;5615;49.304;10.576;2023-06-22T05:37:06;12.68;;;11.50;;
11121;SDS011;5615;49.304;10.576;2023-06-22T05:39:34;12.30;;;11.10;;
11121;SDS011;5615;49.304;10.576;2023-06-22T05:42:03;12.70;;;11.40;;
11121;SDS011;5615;49.304;10.576;2023-06-22T05:44:31;13.00;;;11.70;;
11121;SDS011;5615;49.304;10.576;2023-06-22T05:46:58;13.63;;;12.18;;
11121;SDS011;5615;49.304;10.576;2023-06-22T05:49:25;13.30;;;12.05;;
11121;SDS011;5615;49.304;10.576;2023-06-22T05:51:54;14.68;;;13.15;;
11121;SDS011;5615;49.304;10.576;2023-06-22T05:54:21;14.45;;;12.57;;
11121;SDS011;5615;49.304;10.576;2023-06-22T05:56:48;15.27;;;11.70;;
11121;SDS011;5615;49.304;10.576;2023-06-22T05:59:14;12.60;;;11.40;;
11121;SDS011;5615;49.304;10.576;2023-06-22T06:01:42;14.13;;;12.63;;
11121;SDS011;5615;49.304;10.576;2023-06-22T06:04:09;12.57;;;11.38;;
11121;SDS011;5615;49.304;10.576;2023-06-22T06:06:37;14.35;;;11.48;;
11121;SDS011;5615;49.304;10.576;2023-06-22T06:09:04;11.93;;;10.30;;
11121;SDS011;5615;49.304;10.576;2023-06-22T06:11:31;12.27;;;11.02;;
11121;SDS011;5615;49.304;10.576;2023-06-22T06:13:58;14.80;;;11.25;;
11121;SDS011;5615;49.304;10.576;2023-06-22T06:16:24;12.15;;;10.48;;
11121;SDS011;5615;49.304;10.576;2023-06-22T06:18:52;10.75;;;9.75;;
11121;SDS011;5615;49.304;10.576;2023-06-22T06:21:20;11.63;;;10.32;;
11121;SDS011;5615;49.304;10.576;2023-06-22T06:23:47;9.95;;;9.02;;
11121;SDS011;5615;49.304;10.576;2023-06-22T06:26:14;10.95;;;9.80;;
11121;SDS011;5615;49.304;10.576;2023-06-22T06:28:41;12.05;;;10.27;;
11121;SDS011;5615;49.304;10.576;2023-06-22T06:31:08;11.55;;;10.32;;
11121;SDS011;5615;49.304;10.576;2023-06-22T06:33:34;10.15;;;8.85;;
11121;SDS011;5615;49.304;10.576;2023-06-22T06:36:03;10.32;;;9.43;;
11121;SDS011;5615;49.304;10.576;2023-06-22T06:38:29;10.07;;;9.10;;
11121;SDS011;5615;49.304;10.576;2023-06-22T06:40:57;10.60;;;9.50;;
11121;SDS011;5615;49.304;10.576;2023-06-22T06:43:24;10.63;;;8.75;;
11121;SDS011;5615;49.304;10.576;2023-06-22T06:45:51;10.63;;;9.60;;
11121;SDS011;5615;49.304;10.576;2023-06-22T06:48:17;11.98;;;10.02;;
11121;SDS011;5615;49.304;10.576;2023-06-22T06:50:44;10.45;;;8.85;;
11121;SDS011;5615;49.304;10.576;2023-06-22T06:53:12;9.90;;;8.90;;
11121;SDS011;5615;49.304;10.576;2023-06-22T06:55:39;9.75;;;8.75;;
11121;SDS011;5615;49.304;10.576;2023-06-22T06:58:05;9.80;;;8.82;;
11121;SDS011;5615;49.304;10.576;2023-06-22T07:00:34;9.85;;;8.65;;
11121;SDS011;5615;49.304;10.576;2023-06-22T07:03:01;9.05;;;8.15;;
11121;SDS011;5615;49.304;10.576;2023-06-22T07:05:28;11.80;;;8.73;;
11121;SDS011;5615;49.304;10.576;2023-06-22T07:07:55;12.60;;;8.55;;
11121;SDS011;5615;49.304;10.576;2023-06-22T07:10:23;10.00;;;8.05;;
11121;SDS011;5615;49.304;10.576;2023-06-22T07:12:49;8.95;;;8.10;;
11121;SDS011;5615;49.304;10.576;2023-06-22T07:15:16;11.98;;;8.15;;
11121;SDS011;5615;49.304;10.576;2023-06-22T07:17:43;10.98;;;8.50;;
11121;SDS011;5615;49.304;10.576;2023-06-22T07:20:10;9.60;;;7.70;;
11121;SDS011;5615;49.304;10.576;2023-06-22T07:22:37;8.93;;;8.02;;
11121;SDS011;5615;49.304;10.576;2023-06-22T07:25:04;7.85;;;7.15;;
11121;SDS011;5615;49.304;10.576;2023-06-22T07:27:35;8.82;;;7.65;;
11121;SDS011;5615;49.304;10.576;2023-06-22T07:30:03;8.63;;;7.63;;
11121;SDS011;5615;49.304;10.576;2023-06-22T07:32:31;8.35;;;7.47;;
11121;SDS011;5615;49.304;10.576;2023-06-22T07:34:58;8.25;;;6.90;;
11121;SDS011;5615;49.304;10.576;2023-06-22T07:37:24;10.57;;;7.53;;
11121;SDS011;5615;49.304;10.576;2023-06-22T07:39:52;8.85;;;7.53;;
11121;SDS011;5615;49.304;10.576;2023-06-22T07:42:23;7.97;;;7.15;;
11121;SDS011;5615;49.304;10.576;2023-06-22T07:44:51;8.77;;;7.57;;
11121;SDS011;5615;49.304;10.576;2023-06-22T07:47:18;7.53;;;6.80;;
11121;SDS011;5615;49.304;10.576;2023-06-22T07:49:45;10.40;;;6.95;;
11121;SDS011;5615;49.304;10.576;2023-06-22T07:52:11;9.20;;;7.22;;
11121;SDS011;5615;49.304;10.576;2023-06-22T07:54:38;9.85;;;7.05;;
11121;SDS011;5615;49.304;10.576;2023-06-22T07:57:05;11.13;;;6.95;;
11121;SDS011;5615;49.304;10.576;2023-06-22T07:59:32;9.30;;;6.82;;
11121;SDS011;5615;49.304;10.576;2023-06-22T08:02:00;10.25;;;6.60;;
11121;SDS011;5615;49.304;10.576;2023-06-22T08:04:28;7.57;;;6.75;;
11121;SDS011;5615;49.304;10.576;2023-06-22T08:06:55;8.07;;;6.28;;
11121;SDS011;5615;49.304;10.576;2023-06-22T08:09:22;12.63;;;6.63;;
11121;SDS011;5615;49.304;10.576;2023-06-22T08:11:49;8.80;;;6.80;;
11121;SDS011;5615;49.304;10.576;2023-06-22T08:14:15;9.02;;;6.93;;
11121;SDS011;5615;49.304;10.576;2023-06-22T08:16:42;7.20;;;6.40;;
11121;SDS011;5615;49.304;10.576;2023-06-22T08:19:10;8.80;;;6.93;;
11121;SDS011;5615;49.304;10.576;2023-06-22T08:21:36;8.68;;;6.72;;
11121;SDS011;5615;49.304;10.576;2023-06-22T08:24:03;8.05;;;6.70;;
11121;SDS011;5615;49.304;10.576;2023-06-22T08:26:32;10.50;;;6.15;;
11121;SDS011;5615;49.304;10.576;2023-06-22T08:29:01;9.82;;;6.80;;
11121;SDS011;5615;49.304;10.576;2023-06-22T08:31:28;8.65;;;6.30;;
11121;SDS011;5615;49.304;10.576;2023-06-22T08:33:54;7.40;;;6.70;;
11121;SDS011;5615;49.304;10.576;2023-06-22T08:36:22;7.30;;;6.07;;
11121;SDS011;5615;49.304;10.576;2023-06-22T08:38:50;7.95;;;6.55;;
11121;SDS011;5615;49.304;10.576;2023-06-22T08:41:18;8.73;;;6.80;;
11121;SDS011;5615;49.304;10.576;2023-06-22T08:43:44;8.90;;;6.35;;
11121;SDS011;5615;49.304;10.576;2023-06-22T08:46:11;10.90;;;5.60;;
11121;SDS011;5615;49.304;10.576;2023-06-22T08:48:38;9.82;;;6.47;;
11121;SDS011;5615;49.304;10.576;2023-06-22T08:51:04;11.05;;;6.68;;
11121;SDS011;5615;49.304;10.576;2023-06-22T08:53:32;6.93;;;5.97;;
11121;SDS011;5615;49.304;10.576;2023-06-22T08:56:00;7.43;;;5.95;;
11121;SDS011;5615;49.304;10.576;2023-06-22T08:58:26;7.32;;;6.43;;
11121;SDS011;5615;49.304;10.576;2023-06-22T09:00:53;8.18;;;6.13;;
11121;SDS011;5615;49.304;10.576;2023-06-22T09:03:19;9.02;;;6.00;;
11121;SDS011;5615;49.304;10.576;2023-06-22T09:05:46;12.07;;;6.28;;
11121;SDS011;5615;49.304;10.576;2023-06-22T09:08:13;7.35;;;6.35;;
11121;SDS011;5615;49.304;10.576;2023-06-22T09:10:41;8.30;;;6.50;;
11121;SDS011;5615;49.304;10.576;2023-06-22T09:13:07;10.02;;;6.55;;
11121;SDS011;5615;49.304;10.576;2023-06-22T09:15:34;11.77;;;7.07;;
11121;SDS011;5615;49.304;10.576;2023-06-22T09:18:00;8.25;;;6.18;;
11121;SDS011;5615;49.304;10.576;2023-06-22T09:20:27;24.25;;;7.45;;
11121;SDS011;5615;49.304;10.576;2023-06-22T09:22:54;13.27;;;6.22;;
11121;SDS011;5615;49.304;10.576;2023-06-22T09:25:20;9.00;;;6.60;;
11121;SDS011;5615;49.304;10.576;2023-06-22T09:27:48;10.07;;;6.28;;
11121;SDS011;5615;49.304;10.576;2023-06-22T09:30:15;8.50;;;6.47;;
11121;SDS011;5615;49.304;10.576;2023-06-22T09:32:42;11.52;;;6.13;;
11121;SDS011;5615;49.304;10.576;2023-06-22T09:35:09;8.68;;;6.53;;
11121;SDS011;5615;49.304;10.576;2023-06-22T09:37:37;12.18;;;6.30;;
11121;SDS011;5615;49.304;10.576;2023-06-22T09:40:05;9.98;;;6.10;;
11121;SDS011;5615;49.304;10.576;2023-06-22T09:42:35;11.93;;;5.82;;
11121;SDS011;5615;49.304;10.576;2023-06-22T09:45:04;9.65;;;5.90;;
11121;SDS011;5615;49.304;10.576;2023-06-22T09:47:31;9.35;;;5.97;;
11121;SDS011;5615;49.304;10.576;2023-06-22T09:49:57;10.48;;;6.22;;
11121;SDS011;5615;49.304;10.576;2023-06-22T09:52:24;10.57;;;6.32;;
11121;SDS011;5615;49.304;10.576;2023-06-22T09:54:51;8.68;;;5.70;;
11121;SDS011;5615;49.304;10.576;2023-06-22T09:57:18;8.23;;;6.30;;
11121;SDS011;5615;49.304;10.576;2023-06-22T09:59:44;7.63;;;5.82;;
11121;SDS011;5615;49.304;10.576;2023-06-22T10:02:13;11.75;;;6.05;;
11121;SDS011;5615;49.304;10.576;2023-06-22T10:04:39;10.25;;;5.90;;
11121;SDS011;5615;49.304;10.576;2023-06-22T10:07:06;8.32;;;5.57;;
11121;SDS011;5615;49.304;10.576;2023-06-22T10:09:33;8.90;;;5.93;;
11121;SDS011;5615;49.304;10.576;2023-06-22T10:11:59;11.48;;;5.63;;
11121;SDS011;5615;49.304;10.576;2023-06-22T10:14:26;9.88;;;5.53;;
11121;SDS011;5615;49.304;10.576;2023-06-22T10:16:54;7.47;;;5.50;;
11121;SDS011;5615;49.304;10.576;2023-06-22T10:19:22;10.27;;;5.50;;
11121;SDS011;5615;49.304;10.576;2023-06-22T10:21:49;13.45;;;6.20;;
11121;SDS011;5615;49.304;10.576;2023-06-22T10:24:15;10.75;;;5.93;;
11121;SDS011;5615;49.304;10.576;2023-06-22T10:26:42;7.80;;;5.40;;
11121;SDS011;5615;49.304;10.576;2023-06-22T10:29:09;11.50;;;5.95;;
11121;SDS011;5615;49.304;10.576;2023-06-22T10:31:35;9.57;;;5.57;;
11121;SDS011;5615;49.304;10.576;2023-06-22T10:34:02;7.95;;;5.07;;
11121;SDS011;5615;49.304;10.576;2023-06-22T10:36:30;12.02;;;5.57;;
11121;SDS011;5615;49.304;10.576;2023-06-22T10:38:57;9.93;;;5.40;;
11121;SDS011;5615;49.304;10.576;2023-06-22T10:41:24;11.13;;;5.38;;
11121;SDS011;5615;49.304;10.576;2023-06-22T10:43:51;10.13;;;5.70;;
11121;SDS011;5615;49.304;10.576;2023-06-22T10:46:17;9.13;;;4.88;;
11121;SDS011;5615;49.304;10.576;2023-06-22T10:48:44;8.68;;;5.20;;
11121;SDS011;5615;49.304;10.576;2023-06-22T10:51:10;10.75;;;5.70;;
11121;SDS011;5615;49.304;10.576;2023-06-22T10:53:38;12.98;;;5.20;;
11121;SDS011;5615;49.304;10.576;2023-06-22T10:56:05;12.00;;;5.38;;
11121;SDS011;5615;49.304;10.576;2023-06-22T10:58:31;7.90;;;5.22;;
11121;SDS011;5615;49.304;10.576;2023-06-22T11:00:58;9.27;;;4.88;;
11121;SDS011;5615;49.304;10.576;2023-06-22T11:03:25;9.82;;;5.45;;
11121;SDS011;5615;49.304;10.576;2023-06-22T11:05:51;7.97;;;5.05;;
11121;SDS011;5615;49.304;10.576;2023-06-22T11:08:18;8.27;;;5.35;;
11121;SDS011;5615;49.304;10.576;2023-06-22T11:10:46;17.05;;;5.93;;
11121;SDS011;5615;49.304;10.576;2023-06-22T11:13:13;9.52;;;5.10;;
11121;SDS011;5615;49.304;10.576;2023-06-22T11:15:39;10.73;;;5.35;;
11121;SDS011;5615;49.304;10.576;2023-06-22T11:18:06;9.32;;;5.07;;
11121;SDS011;5615;49.304;10.576;2023-06-22T11:20:33;9.32;;;5.18;;
11121;SDS011;5615;49.304;10.576;2023-06-22T11:23:04;8.48;;;5.18;;
11121;SDS011;5615;49.304;10.576;2023-06-22T11:25:31;12.32;;;5.25;;
11121;SDS011;5615;49.304;10.576;2023-06-22T11:28:01;9.15;;;5.20;;
11121;SDS011;5615;49.304;10.576;2023-06-22T11:30:28;14.80;;;6.03;;
11121;SDS011;5615;49.304;10.576;2023-06-22T11:32:56;8.20;;;5.00;;
11121;SDS011;5615;49.304;10.576;2023-06-22T11:35:22;7.40;;;5.03;;
11121;SDS011;5615;49.304;10.576;2023-06-22T11:37:49;10.13;;;5.57;;
11121;SDS011;5615;49.304;10.576;2023-06-22T11:40:15;12.98;;;5.20;;
11121;SDS011;5615;49.304;10.576;2023-06-22T11:42:42;10.20;;;5.50;;
11121;SDS011;5615;49.304;10.576;2023-06-22T11:45:11;11.82;;;5.22;;
11121;SDS011;5615;49.304;10.576;2023-06-22T11:47:38;8.15;;;4.90;;
11121;SDS011;5615;49.304;10.576;2023-06-22T11:50:05;11.20;;;5.30;;
11121;SDS011;5615;49.304;10.576;2023-06-22T11:52:33;9.88;;;4.90;;
11121;SDS011;5615;49.304;10.576;2023-06-22T11:55:00;11.48;;;5.30;;
11121;SDS011;5615;49.304;10.576;2023-06-22T11:57:28;10.75;;;5.75;;
11121;SDS011;5615;49.304;10.576;2023-06-22T11:59:55;13.00;;;5.07;;
11121;SDS011;5615;49.304;10.576;2023-06-22T12:02:23;9.55;;;4.90;;
11121;SDS011;5615;49.304;10.576;2023-06-22T12:04:49;10.90;;;5.15;;
11121;SDS011;5615;49.304;10.576;2023-06-22T12:07:17;11.00;;;5.47;;
11121;SDS011;5615;49.304;10.576;2023-06-22T12:09:44;12.38;;;4.97;;
11121;SDS011;5615;49.304;10.576;2023-06-22T12:12:10;13.10;;;5.60;;
11121;SDS011;5615;49.304;10.576;2023-06-22T12:14:37;14.57;;;5.63;;
11121;SDS011;5615;49.304;10.576;2023-06-22T12:17:03;13.43;;;5.88;;
11121;SDS011;5615;49.304;10.576;2023-06-22T12:19:31;11.10;;;5.35;;
11121;SDS011;5615;49.304;10.576;2023-06-22T12:21:58;10.30;;;5.50;;
11121;SDS011;5615;49.304;10.576;2023-06-22T12:24:25;11.13;;;5.70;;
11121;SDS011;5615;49.304;10.576;2023-06-22T12:26:51;12.98;;;5.35;;
11121;SDS011;5615;49.304;10.576;2023-06-22T12:29:18;10.15;;;5.07;;
11121;SDS011;5615;49.304;10.576;2023-06-22T12:31:44;10.13;;;5.70;;
11121;SDS011;5615;49.304;10.576;2023-06-22T12:34:11;12.73;;;5.53;;
11121;SDS011;5615;49.304;10.576;2023-06-22T12:36:39;11.50;;;5.97;;
11121;SDS011;5615;49.304;10.576;2023-06-22T12:39:05;12.07;;;5.57;;
11121;SDS011;5615;49.304;10.576;2023-06-22T12:41:32;10.57;;;5.18;;
11121;SDS011;5615;49.304;10.576;2023-06-22T12:43:59;16.48;;;5.55;;
11121;SDS011;5615;49.304;10.576;2023-06-22T12:46:25;10.57;;;5.72;;
11121;SDS011;5615;49.304;10.576;2023-06-22T12:48:52;12.80;;;5.68;;
11121;SDS011;5615;49.304;10.576;2023-06-22T12:51:22;12.73;;;5.88;;
11121;SDS011;5615;49.304;10.576;2023-06-22T12:53:50;10.60;;;5.35;;
11121;SDS011;5615;49.304;10.576;2023-06-22T12:56:17;10.95;;;5.28;;
11121;SDS011;5615;49.304;10.576;2023-06-22T12:58:43;9.82;;;5.60;;
11121;SDS011;5615;49.304;10.576;2023-06-22T13:01:10;11.23;;;5.80;;
11121;SDS011;5615;49.304;10.576;2023-06-22T13:03:36;11.65;;;5.70;;
11121;SDS011;5615;49.304;10.576;2023-06-22T13:06:03;11.68;;;5.47;;
11121;SDS011;5615;49.304;10.576;2023-06-22T13:08:30;13.43;;;5.38;;
11121;SDS011;5615;49.304;10.576;2023-06-22T13:10:58;16.90;;;6.22;;
11121;SDS011;5615;49.304;10.576;2023-06-22T13:13:25;11.45;;;5.65;;
11121;SDS011;5615;49.304;10.576;2023-06-22T13:15:52;15.48;;;6.03;;
11121;SDS011;5615;49.304;10.576;2023-06-22T13:18:19;12.60;;;5.90;;
11121;SDS011;5615;49.304;10.576;2023-06-22T13:20:45;10.98;;;6.07;;
11121;SDS011;5615;49.304;10.576;2023-06-22T13:23:12;9.55;;;6.03;;
11121;SDS011;5615;49.304;10.576;2023-06-22T13:25:39;15.52;;;5.75;;
11121;SDS011;5615;49.304;10.576;2023-06-22T13:28:07;12.75;;;6.30;;
11121;SDS011;5615;49.304;10.576;2023-06-22T13:30:33;19.67;;;6.78;;
11121;SDS011;5615;49.304;10.576;2023-06-22T13:33:00;10.85;;;5.80;;
11121;SDS011;5615;49.304;10.576;2023-06-22T13:35:26;12.93;;;5.85;;
11121;SDS011;5615;49.304;10.576;2023-06-22T13:37:53;12.80;;;5.72;;
11121;SDS011;5615;49.304;10.576;2023-06-22T13:40:20;9.75;;;5.85;;
11121;SDS011;5615;49.304;10.576;2023-06-22T13:42:46;11.68;;;5.97;;
11121;SDS011;5615;49.304;10.576;2023-06-22T13:45:14;13.52;;;6.00;;
11121;SDS011;5615;49.304;10.576;2023-06-22T13:47:44;13.82;;;5.93;;
11121;SDS011;5615;49.304;10.576;2023-06-22T13:50:10;17.25;;;6.63;;
11121;SDS011;5615;49.304;10.576;2023-06-22T13:52:38;18.13;;;6.38;;
11121;SDS011;5615;49.304;10.576;2023-06-22T13:55:05;16.02;;;6.38;;
11121;SDS011;5615;49.304;10.576;2023-06-22T13:57:32;10.95;;;5.93;;
11121;SDS011;5615;49.304;10.576;2023-06-22T13:59:59;13.07;;;5.60;;
11121;SDS011;5615;49.304;10.576;2023-06-22T14:02:27;13.02;;;6.32;;
11121;SDS011;5615;49.304;10.576;2023-06-22T14:04:54;15.38;;;6.50;;
11121;SDS011;5615;49.304;10.576;2023-06-22T14:07:20;15.57;;;7.32;;
11121;SDS011;5615;49.304;10.576;2023-06-22T14:09:49;10.05;;;6.32;;
11121;SDS011;5615;49.304;10.576;2023-06-22T14:12:15;14.60;;;6.32;;
11121;SDS011;5615;49.304;10.576;2023-06-22T14:14:42;9.88;;;5.47;;
11121;SDS011;5615;49.304;10.576;2023-06-22T14:17:09;19.83;;;7.15;;
11121;SDS011;5615;49.304;10.576;2023-06-22T14:19:37;15.40;;;6.72;;
11121;SDS011;5615;49.304;10.576;2023-06-22T14:22:04;19.33;;;6.43;;
11121;SDS011;5615;49.304;10.576;2023-06-22T14:24:31;14.00;;;5.72;;
11121;SDS011;5615;49.304;10.576;2023-06-22T14:26:58;13.27;;;5.78;;
11121;SDS011;5615;49.304;10.576;2023-06-22T14:29:27;11.65;;;6.07;;
11121;SDS011;5615;49.304;10.576;2023-06-22T14:31:54;11.95;;;6.03;;